sensor_id;sensor_type;location;lat;lon;timestamp;P1;durP1;ratioP1;P2;durP2;ratioP2
69970;SDS011;57301;50.328;8.542;2023-05-20T00:00:41;4.90;;;3.00;;
69970;SDS011;57301;50.328;8.542;2023-05-20T00:03:10;4.63;;;3.00;;
69970;SDS011;57301;50.328;8.542;2023-05-20T00:05:36;4.20;;;2.97;;
69970;SDS011;57301;50.328;8.542;2023-05-20T00:08:03;5.28;;;3.33;;
69970;SDS011;57301;50.328;8.542;2023-05-20T00:10:32;4.60;;;3.40;;
69970;SDS011;57301;50.328;8.542;2023-05-20T00:12:59;4.72;;;3.20;;
69970;SDS011;57301;50.328;8.542;2023-05-20T00:15:26;5.53;;;3.35;;
69970;SDS011;57301;50.328;8.542;2023-05-20T00:17:53;5.13;;;3.00;;
69970;SDS011;57301;50.328;8.542;2023-05-20T00:20:20;6.45;;;2.90;;
69970;SDS011;57301;50.328;8.542;2023-05-20T00:22:46;5.18;;;3.05;;
69970;SDS011;57301;50.328;8.542;2023-05-20T00:25:13;4.88;;;3.30;;
69970;SDS011;57301;50.328;8.542;2023-05-20T00:27:40;6.22;;;3.60;;
69970;SDS011;57301;50.328;8.542;2023-05-20T00:30:07;5.27;;;3.00;;
69970;SDS011;57301;50.328;8.542;2023-05-20T00:32:34;6.90;;;3.55;;
69970;SDS011;57301;50.328;8.542;2023-05-20T00:35:01;5.22;;;3.25;;
69970;SDS011;57301;50.328;8.542;2023-05-20T00:37:28;4.70;;;3.10;;
69970;SDS011;57301;50.328;8.542;2023-05-20T00:39:55;4.63;;;3.08;;
69970;SDS011;57301;50.328;8.542;2023-05-20T00:42:22;4.27;;;3.03;;
69970;SDS011;57301;50.328;8.542;2023-05-20T00:44:52;5.03;;;2.83;;
69970;SDS011;57301;50.328;8.542;2023-05-20T00:47:20;5.30;;;2.95;;
69970;SDS011;57301;50.328;8.542;2023-05-20T00:50:01;5.22;;;3.25;;
69970;SDS011;57301;50.328;8.542;2023-05-20T00:52:30;5.57;;;3.28;;
69970;SDS011;57301;50.328;8.542;2023-05-20T00:54:58;6.20;;;3.73;;
69970;SDS011;57301;50.328;8.542;2023-05-20T00:57:25;6.15;;;3.00;;
69970;SDS011;57301;50.328;8.542;2023-05-20T00:59:52;5.70;;;3.70;;
69970;SDS011;57301;50.328;8.542;2023-05-20T01:02:19;5.40;;;3.30;;
69970;SDS011;57301;50.328;8.542;2023-05-20T01:04:46;5.72;;;3.70;;
69970;SDS011;57301;50.328;8.542;2023-05-20T01:07:16;6.83;;;3.20;;
69970;SDS011;57301;50.328;8.542;2023-05-20T01:09:43;6.00;;;3.28;;
69970;SDS011;57301;50.328;8.542;2023-05-20T01:14:50;5.22;;;3.10;;
69970;SDS011;57301;50.328;8.542;2023-05-20T01:17:26;4.18;;;3.20;;
69970;SDS011;57301;50.328;8.542;2023-05-20T01:19:56;5.60;;;3.60;;
69970;SDS011;57301;50.328;8.542;2023-05-20T01:22:25;4.70;;;3.33;;
69970;SDS011;57301;50.328;8.542;2023-05-20T01:24:52;5.22;;;3.50;;
69970;SDS011;57301;50.328;8.542;2023-05-20T01:27:19;5.57;;;3.50;;
69970;SDS011;57301;50.328;8.542;2023-05-20T01:29:51;5.57;;;3.70;;
69970;SDS011;57301;50.328;8.542;2023-05-20T01:34:49;6.28;;;3.50;;
69970;SDS011;57301;50.328;8.542;2023-05-20T01:37:20;5.85;;;3.78;;
69970;SDS011;57301;50.328;8.542;2023-05-20T01:39:48;5.45;;;3.83;;
69970;SDS011;57301;50.328;8.542;2023-05-20T01:42:16;4.38;;;3.30;;
69970;SDS011;57301;50.328;8.542;2023-05-20T01:44:43;8.07;;;3.50;;
69970;SDS011;57301;50.328;8.542;2023-05-20T01:47:10;4.82;;;3.45;;
69970;SDS011;57301;50.328;8.542;2023-05-20T01:49:37;5.78;;;4.05;;
69970;SDS011;57301;50.328;8.542;2023-05-20T01:52:03;5.85;;;3.55;;
69970;SDS011;57301;50.328;8.542;2023-05-20T01:54:30;6.05;;;3.65;;
69970;SDS011;57301;50.328;8.542;2023-05-20T01:56:57;5.60;;;3.73;;
69970;SDS011;57301;50.328;8.542;2023-05-20T01:59:23;6.15;;;3.80;;
69970;SDS011;57301;50.328;8.542;2023-05-20T02:01:50;5.60;;;3.88;;
69970;SDS011;57301;50.328;8.542;2023-05-20T02:04:17;5.38;;;3.88;;
69970;SDS011;57301;50.328;8.542;2023-05-20T02:06:44;6.22;;;3.90;;
69970;SDS011;57301;50.328;8.542;2023-05-20T02:09:11;6.63;;;3.33;;
69970;SDS011;57301;50.328;8.542;2023-05-20T02:11:37;5.50;;;3.65;;
69970;SDS011;57301;50.328;8.542;2023-05-20T02:14:04;5.43;;;3.72;;
69970;SDS011;57301;50.328;8.542;2023-05-20T02:16:30;6.28;;;3.83;;
69970;SDS011;57301;50.328;8.542;2023-05-20T02:18:57;6.07;;;4.13;;
69970;SDS011;57301;50.328;8.542;2023-05-20T02:21:24;5.23;;;3.50;;
69970;SDS011;57301;50.328;8.542;2023-05-20T02:23:51;6.78;;;4.13;;
69970;SDS011;57301;50.328;8.542;2023-05-20T02:26:17;5.30;;;4.22;;
69970;SDS011;57301;50.328;8.542;2023-05-20T02:28:45;5.95;;;4.10;;
69970;SDS011;57301;50.328;8.542;2023-05-20T02:31:16;5.88;;;4.60;;
69970;SDS011;57301;50.328;8.542;2023-05-20T02:33:43;6.43;;;4.27;;
69970;SDS011;57301;50.328;8.542;2023-05-20T02:36:10;6.53;;;3.90;;
69970;SDS011;57301;50.328;8.542;2023-05-20T02:38:37;7.38;;;4.30;;
69970;SDS011;57301;50.328;8.542;2023-05-20T02:41:03;10.32;;;4.07;;
69970;SDS011;57301;50.328;8.542;2023-05-20T02:43:30;6.47;;;4.05;;
69970;SDS011;57301;50.328;8.542;2023-05-20T02:45:57;7.13;;;4.00;;
69970;SDS011;57301;50.328;8.542;2023-05-20T02:48:24;5.57;;;4.20;;
69970;SDS011;57301;50.328;8.542;2023-05-20T02:50:51;8.50;;;4.10;;
69970;SDS011;57301;50.328;8.542;2023-05-20T02:53:18;9.93;;;4.20;;
69970;SDS011;57301;50.328;8.542;2023-05-20T02:55:45;5.50;;;4.22;;
69970;SDS011;57301;50.328;8.542;2023-05-20T02:58:15;6.67;;;4.50;;
69970;SDS011;57301;50.328;8.542;2023-05-20T03:00:42;5.45;;;4.03;;
69970;SDS011;57301;50.328;8.542;2023-05-20T03:03:09;10.95;;;4.20;;
69970;SDS011;57301;50.328;8.542;2023-05-20T03:05:36;7.35;;;4.30;;
69970;SDS011;57301;50.328;8.542;2023-05-20T03:08:09;8.07;;;4.45;;
69970;SDS011;57301;50.328;8.542;2023-05-20T03:10:39;5.60;;;4.30;;
69970;SDS011;57301;50.328;8.542;2023-05-20T03:13:06;6.55;;;4.28;;
69970;SDS011;57301;50.328;8.542;2023-05-20T03:15:34;7.07;;;4.35;;
69970;SDS011;57301;50.328;8.542;2023-05-20T03:18:02;6.43;;;4.60;;
69970;SDS011;57301;50.328;8.542;2023-05-20T03:20:29;6.47;;;4.60;;
69970;SDS011;57301;50.328;8.542;2023-05-20T03:22:57;7.20;;;4.63;;
69970;SDS011;57301;50.328;8.542;2023-05-20T03:25:24;6.18;;;4.47;;
69970;SDS011;57301;50.328;8.542;2023-05-20T03:27:51;7.03;;;4.53;;
69970;SDS011;57301;50.328;8.542;2023-05-20T03:30:18;6.10;;;4.03;;
69970;SDS011;57301;50.328;8.542;2023-05-20T03:32:44;8.82;;;4.50;;
69970;SDS011;57301;50.328;8.542;2023-05-20T03:35:11;7.37;;;4.17;;
69970;SDS011;57301;50.328;8.542;2023-05-20T03:37:38;6.32;;;4.50;;
69970;SDS011;57301;50.328;8.542;2023-05-20T03:40:05;5.80;;;4.63;;
69970;SDS011;57301;50.328;8.542;2023-05-20T03:42:32;7.70;;;4.47;;
69970;SDS011;57301;50.328;8.542;2023-05-20T03:44:59;6.05;;;4.43;;
69970;SDS011;57301;50.328;8.542;2023-05-20T03:47:26;9.67;;;5.23;;
69970;SDS011;57301;50.328;8.542;2023-05-20T03:49:53;7.28;;;4.80;;
69970;SDS011;57301;50.328;8.542;2023-05-20T03:52:20;8.18;;;4.57;;
69970;SDS011;57301;50.328;8.542;2023-05-20T03:54:46;9.65;;;4.60;;
69970;SDS011;57301;50.328;8.542;2023-05-20T03:57:13;9.38;;;4.35;;
69970;SDS011;57301;50.328;8.542;2023-05-20T03:59:43;8.23;;;4.70;;
69970;SDS011;57301;50.328;8.542;2023-05-20T04:02:09;6.30;;;4.70;;
69970;SDS011;57301;50.328;8.542;2023-05-20T04:04:36;8.45;;;4.65;;
69970;SDS011;57301;50.328;8.542;2023-05-20T04:07:03;6.60;;;4.40;;
69970;SDS011;57301;50.328;8.542;2023-05-20T04:09:36;6.90;;;5.00;;
69970;SDS011;57301;50.328;8.542;2023-05-20T04:12:04;6.20;;;4.73;;
69970;SDS011;57301;50.328;8.542;2023-05-20T04:14:31;6.80;;;4.43;;
69970;SDS011;57301;50.328;8.542;2023-05-20T04:17:02;6.18;;;4.75;;
69970;SDS011;57301;50.328;8.542;2023-05-20T04:19:29;7.97;;;4.53;;
69970;SDS011;57301;50.328;8.542;2023-05-20T04:21:56;6.00;;;4.32;;
69970;SDS011;57301;50.328;8.542;2023-05-20T04:24:23;7.73;;;4.60;;
69970;SDS011;57301;50.328;8.542;2023-05-20T04:26:50;6.78;;;4.72;;
69970;SDS011;57301;50.328;8.542;2023-05-20T04:29:17;6.35;;;4.75;;
69970;SDS011;57301;50.328;8.542;2023-05-20T04:31:45;6.32;;;4.82;;
69970;SDS011;57301;50.328;8.542;2023-05-20T04:34:12;9.55;;;5.40;;
69970;SDS011;57301;50.328;8.542;2023-05-20T04:36:40;7.07;;;4.67;;
69970;SDS011;57301;50.328;8.542;2023-05-20T04:39:06;6.18;;;4.45;;
69970;SDS011;57301;50.328;8.542;2023-05-20T04:41:33;8.40;;;5.00;;
69970;SDS011;57301;50.328;8.542;2023-05-20T04:44:01;7.93;;;5.25;;
69970;SDS011;57301;50.328;8.542;2023-05-20T04:46:29;6.80;;;5.32;;
69970;SDS011;57301;50.328;8.542;2023-05-20T04:48:56;8.87;;;5.70;;
69970;SDS011;57301;50.328;8.542;2023-05-20T04:51:23;9.40;;;5.10;;
69970;SDS011;57301;50.328;8.542;2023-05-20T04:53:50;8.50;;;4.60;;
69970;SDS011;57301;50.328;8.542;2023-05-20T04:56:16;8.07;;;5.45;;
69970;SDS011;57301;50.328;8.542;2023-05-20T04:58:43;7.60;;;5.10;;
69970;SDS011;57301;50.328;8.542;2023-05-20T05:01:09;6.70;;;5.33;;
69970;SDS011;57301;50.328;8.542;2023-05-20T05:03:36;9.35;;;6.00;;
69970;SDS011;57301;50.328;8.542;2023-05-20T05:06:02;7.85;;;5.88;;
69970;SDS011;57301;50.328;8.542;2023-05-20T05:08:29;6.97;;;5.35;;
69970;SDS011;57301;50.328;8.542;2023-05-20T05:10:55;9.38;;;5.78;;
69970;SDS011;57301;50.328;8.542;2023-05-20T05:13:22;8.63;;;5.70;;
69970;SDS011;57301;50.328;8.542;2023-05-20T05:15:56;8.95;;;5.90;;
69970;SDS011;57301;50.328;8.542;2023-05-20T05:18:23;9.15;;;5.72;;
69970;SDS011;57301;50.328;8.542;2023-05-20T05:20:57;10.75;;;6.18;;
69970;SDS011;57301;50.328;8.542;2023-05-20T05:23:32;8.50;;;6.10;;
69970;SDS011;57301;50.328;8.542;2023-05-20T05:25:59;7.87;;;5.70;;
69970;SDS011;57301;50.328;8.542;2023-05-20T05:28:25;10.73;;;6.15;;
69970;SDS011;57301;50.328;8.542;2023-05-20T05:30:55;8.77;;;5.90;;
69970;SDS011;57301;50.328;8.542;2023-05-20T05:33:22;9.60;;;6.15;;
69970;SDS011;57301;50.328;8.542;2023-05-20T05:35:49;8.20;;;6.18;;
69970;SDS011;57301;50.328;8.542;2023-05-20T05:38:16;8.93;;;5.80;;
69970;SDS011;57301;50.328;8.542;2023-05-20T05:40:42;9.63;;;6.57;;
69970;SDS011;57301;50.328;8.542;2023-05-20T05:43:09;9.18;;;6.22;;
69970;SDS011;57301;50.328;8.542;2023-05-20T05:45:35;12.20;;;7.13;;
69970;SDS011;57301;50.328;8.542;2023-05-20T05:48:02;10.63;;;6.53;;
69970;SDS011;57301;50.328;8.542;2023-05-20T05:50:29;9.33;;;5.83;;
69970;SDS011;57301;50.328;8.542;2023-05-20T05:52:55;7.80;;;5.97;;
69970;SDS011;57301;50.328;8.542;2023-05-20T05:55:22;7.97;;;6.10;;
69970;SDS011;57301;50.328;8.542;2023-05-20T05:57:49;8.77;;;6.80;;
69970;SDS011;57301;50.328;8.542;2023-05-20T06:00:16;8.43;;;6.20;;
69970;SDS011;57301;50.328;8.542;2023-05-20T06:02:43;9.43;;;6.50;;
69970;SDS011;57301;50.328;8.542;2023-05-20T06:05:10;8.63;;;6.75;;
69970;SDS011;57301;50.328;8.542;2023-05-20T06:07:36;9.27;;;6.72;;
69970;SDS011;57301;50.328;8.542;2023-05-20T06:10:03;11.75;;;6.95;;
69970;SDS011;57301;50.328;8.542;2023-05-20T06:12:30;9.25;;;6.20;;
69970;SDS011;57301;50.328;8.542;2023-05-20T06:14:56;12.20;;;7.27;;
69970;SDS011;57301;50.328;8.542;2023-05-20T06:17:23;8.52;;;6.70;;
69970;SDS011;57301;50.328;8.542;2023-05-20T06:19:49;10.90;;;7.10;;
69970;SDS011;57301;50.328;8.542;2023-05-20T06:22:16;8.35;;;6.32;;
69970;SDS011;57301;50.328;8.542;2023-05-20T06:24:43;10.05;;;7.30;;
69970;SDS011;57301;50.328;8.542;2023-05-20T06:27:09;11.00;;;6.70;;
69970;SDS011;57301;50.328;8.542;2023-05-20T06:29:36;9.85;;;7.20;;
69970;SDS011;57301;50.328;8.542;2023-05-20T06:32:02;17.98;;;7.65;;
69970;SDS011;57301;50.328;8.542;2023-05-20T06:34:29;12.60;;;7.60;;
69970;SDS011;57301;50.328;8.542;2023-05-20T06:36:55;9.43;;;6.90;;
69970;SDS011;57301;50.328;8.542;2023-05-20T06:39:23;10.87;;;7.60;;
69970;SDS011;57301;50.328;8.542;2023-05-20T06:41:50;10.52;;;7.13;;
69970;SDS011;57301;50.328;8.542;2023-05-20T06:44:17;10.70;;;7.88;;
69970;SDS011;57301;50.328;8.542;2023-05-20T06:46:44;15.05;;;9.23;;
69970;SDS011;57301;50.328;8.542;2023-05-20T06:49:11;12.68;;;9.50;;
69970;SDS011;57301;50.328;8.542;2023-05-20T06:51:37;11.60;;;8.10;;
69970;SDS011;57301;50.328;8.542;2023-05-20T06:54:04;13.18;;;8.30;;
69970;SDS011;57301;50.328;8.542;2023-05-20T06:56:30;12.32;;;9.35;;
69970;SDS011;57301;50.328;8.542;2023-05-20T06:58:57;12.35;;;8.20;;
69970;SDS011;57301;50.328;8.542;2023-05-20T07:01:23;10.93;;;8.13;;
69970;SDS011;57301;50.328;8.542;2023-05-20T07:03:50;12.30;;;9.10;;
69970;SDS011;57301;50.328;8.542;2023-05-20T07:06:17;11.88;;;9.00;;
69970;SDS011;57301;50.328;8.542;2023-05-20T07:08:43;12.15;;;8.60;;
69970;SDS011;57301;50.328;8.542;2023-05-20T07:11:10;10.60;;;8.15;;
69970;SDS011;57301;50.328;8.542;2023-05-20T07:13:36;11.43;;;8.85;;
69970;SDS011;57301;50.328;8.542;2023-05-20T07:16:03;11.37;;;9.07;;
69970;SDS011;57301;50.328;8.542;2023-05-20T07:18:30;10.25;;;8.40;;
69970;SDS011;57301;50.328;8.542;2023-05-20T07:20:56;13.25;;;9.00;;
69970;SDS011;57301;50.328;8.542;2023-05-20T07:23:23;11.65;;;9.63;;
69970;SDS011;57301;50.328;8.542;2023-05-20T07:25:52;11.48;;;8.73;;
69970;SDS011;57301;50.328;8.542;2023-05-20T07:28:19;12.23;;;9.10;;
69970;SDS011;57301;50.328;8.542;2023-05-20T07:30:46;13.38;;;9.25;;
69970;SDS011;57301;50.328;8.542;2023-05-20T07:33:15;11.48;;;9.10;;
69970;SDS011;57301;50.328;8.542;2023-05-20T07:35:42;12.65;;;8.65;;
69970;SDS011;57301;50.328;8.542;2023-05-20T07:38:10;13.85;;;8.75;;
69970;SDS011;57301;50.328;8.542;2023-05-20T07:40:38;12.33;;;9.53;;
69970;SDS011;57301;50.328;8.542;2023-05-20T07:43:07;11.75;;;9.23;;
69970;SDS011;57301;50.328;8.542;2023-05-20T07:45:34;12.63;;;9.07;;
69970;SDS011;57301;50.328;8.542;2023-05-20T07:48:03;10.80;;;8.80;;
69970;SDS011;57301;50.328;8.542;2023-05-20T07:50:30;12.10;;;9.30;;
69970;SDS011;57301;50.328;8.542;2023-05-20T07:52:57;11.03;;;8.40;;
69970;SDS011;57301;50.328;8.542;2023-05-20T07:55:23;12.02;;;8.93;;
69970;SDS011;57301;50.328;8.542;2023-05-20T07:57:50;11.40;;;8.95;;
69970;SDS011;57301;50.328;8.542;2023-05-20T08:00:16;12.40;;;9.05;;
69970;SDS011;57301;50.328;8.542;2023-05-20T08:02:43;11.70;;;8.98;;
69970;SDS011;57301;50.328;8.542;2023-05-20T08:05:10;12.27;;;9.20;;
69970;SDS011;57301;50.328;8.542;2023-05-20T08:07:36;13.00;;;9.50;;
69970;SDS011;57301;50.328;8.542;2023-05-20T08:10:03;13.45;;;10.02;;
69970;SDS011;57301;50.328;8.542;2023-05-20T08:12:30;12.70;;;9.18;;
69970;SDS011;57301;50.328;8.542;2023-05-20T08:14:56;11.43;;;8.35;;
69970;SDS011;57301;50.328;8.542;2023-05-20T08:17:23;12.27;;;8.90;;
69970;SDS011;57301;50.328;8.542;2023-05-20T08:19:49;12.02;;;9.23;;
69970;SDS011;57301;50.328;8.542;2023-05-20T08:22:16;12.07;;;8.70;;
69970;SDS011;57301;50.328;8.542;2023-05-20T08:24:42;14.60;;;9.20;;
69970;SDS011;57301;50.328;8.542;2023-05-20T08:27:09;13.45;;;8.82;;
69970;SDS011;57301;50.328;8.542;2023-05-20T08:29:35;12.67;;;9.00;;
69970;SDS011;57301;50.328;8.542;2023-05-20T08:32:02;12.10;;;8.55;;
69970;SDS011;57301;50.328;8.542;2023-05-20T08:34:29;11.23;;;8.75;;
69970;SDS011;57301;50.328;8.542;2023-05-20T08:36:56;12.88;;;8.52;;
69970;SDS011;57301;50.328;8.542;2023-05-20T08:39:23;12.27;;;9.02;;
69970;SDS011;57301;50.328;8.542;2023-05-20T08:41:50;10.60;;;8.30;;
69970;SDS011;57301;50.328;8.542;2023-05-20T08:44:18;10.93;;;8.93;;
69970;SDS011;57301;50.328;8.542;2023-05-20T08:46:46;11.38;;;8.95;;
69970;SDS011;57301;50.328;8.542;2023-05-20T08:49:14;12.15;;;8.35;;
69970;SDS011;57301;50.328;8.542;2023-05-20T08:51:40;12.35;;;9.23;;
69970;SDS011;57301;50.328;8.542;2023-05-20T08:54:08;10.73;;;8.47;;
69970;SDS011;57301;50.328;8.542;2023-05-20T08:56:37;11.10;;;9.07;;
69970;SDS011;57301;50.328;8.542;2023-05-20T08:59:04;13.77;;;8.98;;
69970;SDS011;57301;50.328;8.542;2023-05-20T09:01:31;11.85;;;9.10;;
69970;SDS011;57301;50.328;8.542;2023-05-20T09:04:04;14.15;;;10.73;;
69970;SDS011;57301;50.328;8.542;2023-05-20T09:06:52;12.07;;;9.47;;
69970;SDS011;57301;50.328;8.542;2023-05-20T09:09:19;11.77;;;9.40;;
69970;SDS011;57301;50.328;8.542;2023-05-20T09:11:45;11.88;;;9.52;;
69970;SDS011;57301;50.328;8.542;2023-05-20T09:14:12;13.48;;;9.23;;
69970;SDS011;57301;50.328;8.542;2023-05-20T09:16:39;14.35;;;10.60;;
69970;SDS011;57301;50.328;8.542;2023-05-20T09:19:06;15.93;;;9.53;;
69970;SDS011;57301;50.328;8.542;2023-05-20T09:21:35;12.77;;;9.15;;
69970;SDS011;57301;50.328;8.542;2023-05-20T09:24:02;14.45;;;9.25;;
69970;SDS011;57301;50.328;8.542;2023-05-20T09:26:29;12.88;;;9.15;;
69970;SDS011;57301;50.328;8.542;2023-05-20T09:28:56;12.02;;;9.30;;
69970;SDS011;57301;50.328;8.542;2023-05-20T09:31:32;12.80;;;9.13;;
69970;SDS011;57301;50.328;8.542;2023-05-20T09:34:00;12.43;;;9.05;;
69970;SDS011;57301;50.328;8.542;2023-05-20T09:36:27;12.50;;;9.70;;
69970;SDS011;57301;50.328;8.542;2023-05-20T09:38:55;10.68;;;8.35;;
69970;SDS011;57301;50.328;8.542;2023-05-20T09:41:31;11.20;;;9.05;;
69970;SDS011;57301;50.328;8.542;2023-05-20T09:44:01;12.87;;;9.90;;
69970;SDS011;57301;50.328;8.542;2023-05-20T09:46:29;11.60;;;9.38;;
69970;SDS011;57301;50.328;8.542;2023-05-20T09:48:56;12.43;;;9.35;;
69970;SDS011;57301;50.328;8.542;2023-05-20T09:51:24;10.73;;;8.80;;
69970;SDS011;57301;50.328;8.542;2023-05-20T09:53:52;13.07;;;9.88;;
69970;SDS011;57301;50.328;8.542;2023-05-20T09:56:20;13.53;;;9.60;;
69970;SDS011;57301;50.328;8.542;2023-05-20T09:58:50;13.20;;;8.93;;
69970;SDS011;57301;50.328;8.542;2023-05-20T10:01:23;13.98;;;9.77;;
69970;SDS011;57301;50.328;8.542;2023-05-20T10:03:51;12.07;;;9.30;;
69970;SDS011;57301;50.328;8.542;2023-05-20T10:06:59;11.80;;;9.80;;
69970;SDS011;57301;50.328;8.542;2023-05-20T10:11:52;11.93;;;9.65;;
69970;SDS011;57301;50.328;8.542;2023-05-20T10:15:13;11.85;;;9.48;;
69970;SDS011;57301;50.328;8.542;2023-05-20T10:20:17;13.23;;;9.38;;
69970;SDS011;57301;50.328;8.542;2023-05-20T10:22:53;13.93;;;9.10;;
69970;SDS011;57301;50.328;8.542;2023-05-20T10:25:24;12.90;;;9.30;;
69970;SDS011;57301;50.328;8.542;2023-05-20T10:28:04;12.30;;;9.13;;
69970;SDS011;57301;50.328;8.542;2023-05-20T10:30:34;12.68;;;9.60;;
69970;SDS011;57301;50.328;8.542;2023-05-20T10:33:04;11.95;;;8.93;;
69970;SDS011;57301;50.328;8.542;2023-05-20T10:35:32;11.60;;;9.37;;
69970;SDS011;57301;50.328;8.542;2023-05-20T10:38:09;13.55;;;9.32;;
69970;SDS011;57301;50.328;8.542;2023-05-20T10:40:37;12.85;;;9.73;;
69970;SDS011;57301;50.328;8.542;2023-05-20T10:43:07;14.20;;;10.38;;
69970;SDS011;57301;50.328;8.542;2023-05-20T10:45:47;12.52;;;9.43;;
69970;SDS011;57301;50.328;8.542;2023-05-20T10:48:33;12.00;;;9.43;;
69970;SDS011;57301;50.328;8.542;2023-05-20T10:51:01;11.85;;;8.73;;
69970;SDS011;57301;50.328;8.542;2023-05-20T10:53:38;13.80;;;9.18;;
69970;SDS011;57301;50.328;8.542;2023-05-20T10:56:15;12.70;;;9.60;;
69970;SDS011;57301;50.328;8.542;2023-05-20T10:58:46;13.38;;;9.85;;
69970;SDS011;57301;50.328;8.542;2023-05-20T11:01:14;12.50;;;10.03;;
69970;SDS011;57301;50.328;8.542;2023-05-20T11:03:44;13.75;;;9.25;;
69970;SDS011;57301;50.328;8.542;2023-05-20T11:06:15;12.52;;;9.20;;
69970;SDS011;57301;50.328;8.542;2023-05-20T11:08:44;12.02;;;9.48;;
69970;SDS011;57301;50.328;8.542;2023-05-20T11:11:11;11.70;;;9.02;;
69970;SDS011;57301;50.328;8.542;2023-05-20T11:13:39;14.53;;;9.53;;
69970;SDS011;57301;50.328;8.542;2023-05-20T11:16:06;11.38;;;8.50;;
69970;SDS011;57301;50.328;8.542;2023-05-20T11:18:33;11.98;;;8.60;;
69970;SDS011;57301;50.328;8.542;2023-05-20T11:21:00;13.00;;;8.73;;
69970;SDS011;57301;50.328;8.542;2023-05-20T11:23:28;12.20;;;9.15;;
69970;SDS011;57301;50.328;8.542;2023-05-20T11:25:55;13.73;;;9.40;;
69970;SDS011;57301;50.328;8.542;2023-05-20T11:28:22;10.70;;;8.73;;
69970;SDS011;57301;50.328;8.542;2023-05-20T11:30:51;11.45;;;9.32;;
69970;SDS011;57301;50.328;8.542;2023-05-20T11:33:19;12.38;;;9.40;;
69970;SDS011;57301;50.328;8.542;2023-05-20T11:35:50;16.02;;;9.63;;
69970;SDS011;57301;50.328;8.542;2023-05-20T11:38:18;12.13;;;9.53;;
69970;SDS011;57301;50.328;8.542;2023-05-20T11:40:46;12.25;;;9.55;;
69970;SDS011;57301;50.328;8.542;2023-05-20T11:43:17;14.23;;;9.95;;
69970;SDS011;57301;50.328;8.542;2023-05-20T11:45:45;13.27;;;9.68;;
69970;SDS011;57301;50.328;8.542;2023-05-20T11:48:13;12.27;;;9.65;;
69970;SDS011;57301;50.328;8.542;2023-05-20T11:50:43;12.93;;;9.70;;
69970;SDS011;57301;50.328;8.542;2023-05-20T11:53:16;12.25;;;9.27;;
69970;SDS011;57301;50.328;8.542;2023-05-20T11:58:28;13.57;;;9.90;;
69970;SDS011;57301;50.328;8.542;2023-05-20T12:00:56;14.38;;;10.88;;
69970;SDS011;57301;50.328;8.542;2023-05-20T12:03:39;13.93;;;10.30;;
69970;SDS011;57301;50.328;8.542;2023-05-20T12:06:05;13.73;;;10.30;;
69970;SDS011;57301;50.328;8.542;2023-05-20T12:08:32;14.88;;;10.18;;
69970;SDS011;57301;50.328;8.542;2023-05-20T12:10:59;12.85;;;9.68;;
69970;SDS011;57301;50.328;8.542;2023-05-20T12:13:25;15.93;;;9.68;;
69970;SDS011;57301;50.328;8.542;2023-05-20T12:15:52;12.33;;;10.00;;
69970;SDS011;57301;50.328;8.542;2023-05-20T12:18:18;14.27;;;10.95;;
69970;SDS011;57301;50.328;8.542;2023-05-20T12:20:45;14.13;;;10.95;;
69970;SDS011;57301;50.328;8.542;2023-05-20T12:23:11;14.90;;;10.27;;
69970;SDS011;57301;50.328;8.542;2023-05-20T12:25:38;11.23;;;9.48;;
69970;SDS011;57301;50.328;8.542;2023-05-20T12:28:05;15.40;;;11.57;;
69970;SDS011;57301;50.328;8.542;2023-05-20T12:30:32;17.60;;;10.18;;
69970;SDS011;57301;50.328;8.542;2023-05-20T12:32:59;14.48;;;10.32;;
69970;SDS011;57301;50.328;8.542;2023-05-20T12:35:36;17.95;;;11.73;;
69970;SDS011;57301;50.328;8.542;2023-05-20T12:38:07;13.25;;;10.23;;
69970;SDS011;57301;50.328;8.542;2023-05-20T12:40:34;13.07;;;10.50;;
69970;SDS011;57301;50.328;8.542;2023-05-20T12:43:03;14.30;;;10.95;;
69970;SDS011;57301;50.328;8.542;2023-05-20T12:45:30;13.93;;;10.70;;
69970;SDS011;57301;50.328;8.542;2023-05-20T12:47:57;13.20;;;10.15;;
69970;SDS011;57301;50.328;8.542;2023-05-20T12:50:24;14.05;;;10.45;;
69970;SDS011;57301;50.328;8.542;2023-05-20T12:52:51;14.07;;;11.10;;
69970;SDS011;57301;50.328;8.542;2023-05-20T12:55:18;14.48;;;11.35;;
69970;SDS011;57301;50.328;8.542;2023-05-20T12:57:45;17.55;;;13.38;;
69970;SDS011;57301;50.328;8.542;2023-05-20T13:00:12;13.15;;;9.82;;
69970;SDS011;57301;50.328;8.542;2023-05-20T13:02:40;11.98;;;10.20;;
69970;SDS011;57301;50.328;8.542;2023-05-20T13:05:10;12.40;;;10.13;;
69970;SDS011;57301;50.328;8.542;2023-05-20T13:07:37;12.45;;;9.48;;
69970;SDS011;57301;50.328;8.542;2023-05-20T13:10:05;10.95;;;9.57;;
69970;SDS011;57301;50.328;8.542;2023-05-20T13:12:33;10.57;;;9.18;;
69970;SDS011;57301;50.328;8.542;2023-05-20T13:15:00;14.10;;;9.93;;
69970;SDS011;57301;50.328;8.542;2023-05-20T13:17:27;10.67;;;9.03;;
69970;SDS011;57301;50.328;8.542;2023-05-20T13:19:53;12.27;;;9.45;;
69970;SDS011;57301;50.328;8.542;2023-05-20T13:22:21;13.80;;;10.25;;
69970;SDS011;57301;50.328;8.542;2023-05-20T13:24:47;12.73;;;10.18;;
69970;SDS011;57301;50.328;8.542;2023-05-20T13:27:14;12.18;;;9.77;;
69970;SDS011;57301;50.328;8.542;2023-05-20T13:29:40;13.40;;;10.87;;
69970;SDS011;57301;50.328;8.542;2023-05-20T13:32:08;14.70;;;10.95;;
69970;SDS011;57301;50.328;8.542;2023-05-20T13:34:35;16.80;;;12.38;;
69970;SDS011;57301;50.328;8.542;2023-05-20T13:37:04;17.55;;;10.20;;
69970;SDS011;57301;50.328;8.542;2023-05-20T13:39:31;11.57;;;9.45;;
69970;SDS011;57301;50.328;8.542;2023-05-20T13:41:57;12.10;;;9.10;;
69970;SDS011;57301;50.328;8.542;2023-05-20T13:44:24;12.35;;;9.38;;
69970;SDS011;57301;50.328;8.542;2023-05-20T13:46:51;12.82;;;10.07;;
69970;SDS011;57301;50.328;8.542;2023-05-20T13:49:17;10.43;;;9.32;;
69970;SDS011;57301;50.328;8.542;2023-05-20T13:51:44;13.52;;;9.43;;
69970;SDS011;57301;50.328;8.542;2023-05-20T13:54:11;10.47;;;8.90;;
69970;SDS011;57301;50.328;8.542;2023-05-20T13:56:37;12.35;;;9.48;;
69970;SDS011;57301;50.328;8.542;2023-05-20T13:59:04;11.25;;;8.80;;
69970;SDS011;57301;50.328;8.542;2023-05-20T14:01:31;11.75;;;9.35;;
69970;SDS011;57301;50.328;8.542;2023-05-20T14:04:00;10.82;;;9.40;;
69970;SDS011;57301;50.328;8.542;2023-05-20T14:06:27;10.47;;;9.13;;
69970;SDS011;57301;50.328;8.542;2023-05-20T14:08:55;12.98;;;9.18;;
69970;SDS011;57301;50.328;8.542;2023-05-20T14:11:21;12.15;;;10.07;;
69970;SDS011;57301;50.328;8.542;2023-05-20T14:13:48;11.65;;;9.02;;
69970;SDS011;57301;50.328;8.542;2023-05-20T14:16:15;10.70;;;9.25;;
69970;SDS011;57301;50.328;8.542;2023-05-20T14:18:41;11.60;;;9.37;;
69970;SDS011;57301;50.328;8.542;2023-05-20T14:21:10;9.80;;;8.75;;
69970;SDS011;57301;50.328;8.542;2023-05-20T14:23:37;11.77;;;8.73;;
69970;SDS011;57301;50.328;8.542;2023-05-20T14:26:06;11.60;;;8.15;;
69970;SDS011;57301;50.328;8.542;2023-05-20T14:28:32;10.23;;;8.65;;
69970;SDS011;57301;50.328;8.542;2023-05-20T14:30:59;11.40;;;8.50;;
69970;SDS011;57301;50.328;8.542;2023-05-20T14:33:25;11.75;;;7.93;;
69970;SDS011;57301;50.328;8.542;2023-05-20T14:35:52;9.63;;;8.40;;
69970;SDS011;57301;50.328;8.542;2023-05-20T14:38:19;11.23;;;8.50;;
69970;SDS011;57301;50.328;8.542;2023-05-20T14:40:46;10.63;;;8.77;;
69970;SDS011;57301;50.328;8.542;2023-05-20T14:43:13;12.10;;;9.43;;
69970;SDS011;57301;50.328;8.542;2023-05-20T14:45:39;11.48;;;9.43;;
69970;SDS011;57301;50.328;8.542;2023-05-20T14:48:06;12.40;;;9.05;;
69970;SDS011;57301;50.328;8.542;2023-05-20T14:50:32;11.50;;;8.95;;
69970;SDS011;57301;50.328;8.542;2023-05-20T14:52:59;10.63;;;8.82;;
69970;SDS011;57301;50.328;8.542;2023-05-20T14:55:26;12.60;;;9.53;;